Poynor, Missouri
Current Conditions -  °F | °C
As of 4:53 AM on Saturday 25 Oct 2014 (Local Time) from KPOF Reporting Station
Haze Haze  
Wind Chill: 56°   Ceiling: Unl
Heat Index: 56°   Visibility: 5mi
Dew Point: 53°   Wind: 3mph
Humidity: 90%   Direction: 220°SW
Pressure: 30.03"   Gusts: NA
Location:  36.6514°N, 90.8035°W
Report Text: KPOF 250953Z AUTO 22003KT 5SM BR CLR 13/12 A3003 RMK AO2 SLP167 T01330117
Loading
Personal Weather Stations






























Interactive Weather Map
Tropical Storm Tracking
New forecast layout! Learn more

10-Day Weather Forecast

Advertisements
Track Severe Weather on mobile